Time;durP1;ratioP1;P1;durP2;ratioP2;P2;SDS_P1;SDS_P2;PMS_P1;PMS_P2;Temp;Humidity;BMP_temperature;BMP_pressure;BME280_temperature;BME280_humidity;BME280_pressure;Samples;Min_cycle;Max_cycle;Signal;HPM_P1;HPM_P2
2022/09/22 00:00:17;;;;;;;3.60;1.20;;;;;;;;;;5073641;28;20041;-62
2022/09/22 00:02:42;;;;;;;3.20;1.70;;;;;;;;;;5073881;28;20029;-61
2022/09/22 00:05:08;;;;;;;3.80;1.60;;;;;;;;;;5073969;28;20041;-61
2022/09/22 00:07:34;;;;;;;3.17;1.67;;;;;;;;;;5074057;28;20036;-62
2022/09/22 00:10:00;;;;;;;3.30;1.67;;;;;;;;;;5074409;28;20047;-61
2022/09/22 00:12:25;;;;;;;2.17;1.65;;;;;;;;;;5060261;28;20017;-62
2022/09/22 00:14:52;;;;;;;2.38;1.60;;;;;;;;;;5071820;28;20049;-62
2022/09/22 00:17:18;;;;;;;3.67;1.63;;;;;;;;;;5053912;28;20384;-62
2022/09/22 00:19:44;;;;;;;1.92;1.40;;;;;;;;;;5053337;28;20037;-62
2022/09/22 00:22:09;;;;;;;2.80;1.42;;;;;;;;;;5053272;28;20025;-60
2022/09/22 00:24:35;;;;;;;1.92;1.33;;;;;;;;;;5059111;28;20047;-61
2022/09/22 00:27:01;;;;;;;2.30;1.48;;;;;;;;;;5071491;28;20095;-60
2022/09/22 00:29:28;;;;;;;1.98;1.40;;;;;;;;;;5066057;28;20312;-64
2022/09/22 00:31:55;;;;;;;2.50;1.40;;;;;;;;;;5057454;28;20037;-62
2022/09/22 00:34:23;;;;;;;1.92;1.45;;;;;;;;;;5060337;28;20379;-61
2022/09/22 00:36:49;;;;;;;3.63;1.48;;;;;;;;;;5074016;28;20040;-61
2022/09/22 00:39:16;;;;;;;2.47;1.50;;;;;;;;;;5072667;28;20106;-68
2022/09/22 00:41:45;;;;;;;5.28;1.60;;;;;;;;;;5072205;28;20434;-64
2022/09/22 00:44:19;;;;;;;2.78;1.67;;;;;;;;;;5073671;28;20036;-62
2022/09/22 00:46:51;;;;;;;1.88;1.48;;;;;;;;;;5073765;28;20028;-61
2022/09/22 00:49:20;;;;;;;1.90;1.48;;;;;;;;;;5072450;28;20416;-61
2022/09/22 00:51:46;;;;;;;2.92;1.55;;;;;;;;;;5073646;28;20076;-61
2022/09/22 00:54:16;;;;;;;1.60;1.30;;;;;;;;;;5072293;28;20399;-62
2022/09/22 00:56:56;;;;;;;2.05;1.40;;;;;;;;;;5074029;28;20392;-62
2022/09/22 00:59:24;;;;;;;4.00;1.30;;;;;;;;;;5073678;28;20118;-62
2022/09/22 01:01:50;;;;;;;2.88;1.60;;;;;;;;;;5073394;28;20025;-61
2022/09/22 01:04:17;;;;;;;1.80;1.45;;;;;;;;;;5070333;28;20020;-64
2022/09/22 01:06:44;;;;;;;2.70;1.55;;;;;;;;;;5072711;28;20024;-62
2022/09/22 01:09:11;;;;;;;3.35;1.27;;;;;;;;;;5063442;28;20029;-63
2022/09/22 01:11:38;;;;;;;1.98;1.50;;;;;;;;;;5059624;28;20025;-62
2022/09/22 01:14:33;;;;;;;2.00;1.65;;;;;;;;;;5062739;28;20372;-66
2022/09/22 01:17:02;;;;;;;1.88;1.42;;;;;;;;;;5071680;28;20056;-62
2022/09/22 01:20:03;;;;;;;1.52;1.42;;;;;;;;;;5070974;28;20062;-61
2022/09/22 01:22:35;;;;;;;1.80;1.42;;;;;;;;;;5070175;28;20048;-62
2022/09/22 01:25:16;;;;;;;1.63;1.35;;;;;;;;;;5072053;28;20044;-61
2022/09/22 01:28:07;;;;;;;1.65;1.42;;;;;;;;;;5072416;28;20036;-62
2022/09/22 01:30:40;;;;;;;2.03;1.52;;;;;;;;;;5071221;28;20475;-61
2022/09/22 01:33:18;;;;;;;3.47;1.52;;;;;;;;;;5071677;28;20061;-61
2022/09/22 01:36:13;;;;;;;1.92;1.42;;;;;;;;;;5071908;28;20114;-61
2022/09/22 01:38:51;;;;;;;1.92;1.50;;;;;;;;;;5072112;28;20028;-61
2022/09/22 01:41:39;;;;;;;2.22;1.35;;;;;;;;;;5071040;28;20055;-62
2022/09/22 01:44:11;;;;;;;2.58;1.50;;;;;;;;;;5072113;28;20103;-61
2022/09/22 01:46:44;;;;;;;1.83;1.33;;;;;;;;;;5071971;28;20028;-60
2022/09/22 01:49:13;;;;;;;;;;;;;;;;;;5072405;28;20032;-62
2022/09/22 01:51:48;;;;;;;2.15;1.60;;;;;;;;;;5062639;28;19916;-61
2022/09/22 01:54:32;;;;;;;1.98;1.48;;;;;;;;;;5072086;28;20032;-65
2022/09/22 01:57:23;;;;;;;2.00;1.50;;;;;;;;;;5072110;28;20383;-61
2022/09/22 01:59:54;;;;;;;1.73;1.40;;;;;;;;;;5071300;28;20457;-60
2022/09/22 02:02:29;;;;;;;1.60;1.30;;;;;;;;;;5070640;28;20405;-59
2022/09/22 02:05:01;;;;;;;1.40;1.27;;;;;;;;;;5070350;28;20033;-60
2022/09/22 02:07:37;;;;;;;1.92;1.45;;;;;;;;;;5057149;28;20029;-60
2022/09/22 02:10:07;;;;;;;2.22;1.50;;;;;;;;;;5051868;28;20044;-61
2022/09/22 02:12:35;;;;;;;1.83;1.42;;;;;;;;;;5050359;28;20484;-61
2022/09/22 02:15:02;;;;;;;2.28;1.45;;;;;;;;;;5050279;28;20034;-64
2022/09/22 02:17:29;;;;;;;1.92;1.50;;;;;;;;;;5051605;28;20377;-61
2022/09/22 02:19:55;;;;;;;1.80;1.30;;;;;;;;;;5050425;28;20067;-63
2022/09/22 02:22:21;;;;;;;1.65;1.35;;;;;;;;;;5050642;28;20063;-60
2022/09/22 02:24:46;;;;;;;2.50;1.45;;;;;;;;;;5052256;28;20029;-64
2022/09/22 02:27:24;;;;;;;2.08;1.40;;;;;;;;;;5055061;28;20081;-60
2022/09/22 02:30:07;;;;;;;1.90;1.40;;;;;;;;;;5072037;28;20036;-62
2022/09/22 02:32:36;;;;;;;2.60;1.40;;;;;;;;;;5052583;28;20029;-63
2022/09/22 02:35:03;;;;;;;2.22;1.60;;;;;;;;;;5051869;28;20037;-69
2022/09/22 02:37:35;;;;;;;5.40;1.50;;;;;;;;;;5051691;28;20104;-61
2022/09/22 02:40:12;;;;;;;4.20;1.58;;;;;;;;;;5051428;28;20503;-61
2022/09/22 02:42:58;;;;;;;1.80;1.42;;;;;;;;;;5050578;28;20033;-61
2022/09/22 02:45:52;;;;;;;3.50;1.65;;;;;;;;;;5055084;28;20523;-62
2022/09/22 02:48:33;;;;;;;2.65;1.85;;;;;;;;;;5054710;28;20045;-61
2022/09/22 02:51:00;;;;;;;2.35;1.70;;;;;;;;;;5054889;28;20056;-61
2022/09/22 02:53:25;;;;;;;2.85;1.70;;;;;;;;;;5055189;28;20466;-61
2022/09/22 02:55:51;;;;;;;2.22;1.55;;;;;;;;;;5053829;28;20128;-62
2022/09/22 02:58:17;;;;;;;3.35;1.88;;;;;;;;;;5053717;28;20387;-61
2022/09/22 03:00:44;;;;;;;3.92;2.40;;;;;;;;;;5054881;28;20090;-61
2022/09/22 03:03:10;;;;;;;3.28;1.70;;;;;;;;;;5053631;28;20032;-64
2022/09/22 03:05:37;;;;;;;2.85;1.90;;;;;;;;;;5053706;28;20086;-61
2022/09/22 03:08:03;;;;;;;3.67;2.10;;;;;;;;;;5055103;28;20621;-62
2022/09/22 03:10:29;;;;;;;12.10;8.35;;;;;;;;;;5059114;28;20028;-61
2022/09/22 03:12:56;;;;;;;6.00;2.72;;;;;;;;;;5074456;28;20016;-62
2022/09/22 03:15:22;;;;;;;6.30;2.38;;;;;;;;;;5074638;28;20029;-62
2022/09/22 03:17:48;;;;;;;4.60;2.13;;;;;;;;;;5065274;28;20028;-61
2022/09/22 03:20:15;;;;;;;2.25;1.85;;;;;;;;;;5054362;28;20056;-61
2022/09/22 03:22:41;;;;;;;3.85;2.20;;;;;;;;;;5054545;28;20056;-61
2022/09/22 03:25:10;;;;;;;5.57;2.20;;;;;;;;;;5055147;28;20029;-62
2022/09/22 03:27:37;;;;;;;2.42;2.00;;;;;;;;;;5054539;28;20096;-61
2022/09/22 03:30:04;;;;;;;3.03;1.85;;;;;;;;;;5054220;28;20033;-61
2022/09/22 03:32:30;;;;;;;4.22;2.00;;;;;;;;;;5052382;28;20071;-60
2022/09/22 03:34:57;;;;;;;3.03;2.13;;;;;;;;;;5052362;28;20132;-60
2022/09/22 03:37:22;;;;;;;4.68;2.08;;;;;;;;;;5054277;28;20041;-61
2022/09/22 03:39:48;;;;;;;4.07;1.90;;;;;;;;;;5054785;28;20041;-61
2022/09/22 03:42:14;;;;;;;2.95;2.00;;;;;;;;;;5054869;28;20029;-62
2022/09/22 03:44:40;;;;;;;2.47;1.98;;;;;;;;;;5054949;28;20124;-61
2022/09/22 03:47:06;;;;;;;3.72;2.38;;;;;;;;;;5054783;28;20017;-61
2022/09/22 03:49:32;;;;;;;4.43;2.20;;;;;;;;;;5054166;28;20518;-61
2022/09/22 03:51:57;;;;;;;3.28;2.13;;;;;;;;;;5053653;28;20025;-61
2022/09/22 03:54:23;;;;;;;2.70;2.00;;;;;;;;;;5054624;28;21090;-63
2022/09/22 03:56:49;;;;;;;3.45;2.30;;;;;;;;;;5054765;28;20531;-61
2022/09/22 03:59:15;;;;;;;2.55;2.10;;;;;;;;;;5054594;28;20044;-61
2022/09/22 04:01:41;;;;;;;2.92;2.05;;;;;;;;;;5036222;28;20384;-61
2022/09/22 04:04:07;;;;;;;3.45;2.08;;;;;;;;;;5054300;28;20040;-62
2022/09/22 04:06:34;;;;;;;5.22;2.25;;;;;;;;;;5054405;28;20021;-60
2022/09/22 04:09:00;;;;;;;3.63;2.45;;;;;;;;;;5054464;28;20476;-61
2022/09/22 04:11:26;;;;;;;3.85;2.13;;;;;;;;;;5054136;28;20031;-61
2022/09/22 04:13:53;;;;;;;5.43;2.08;;;;;;;;;;5054256;28;20095;-62
2022/09/22 04:16:19;;;;;;;3.65;2.30;;;;;;;;;;5058255;28;20017;-62
2022/09/22 04:18:45;;;;;;;3.40;2.20;;;;;;;;;;5074163;28;20030;-61
2022/09/22 04:21:11;;;;;;;5.07;2.58;;;;;;;;;;5073256;28;20098;-61
2022/09/22 04:23:36;;;;;;;5.35;2.90;;;;;;;;;;5074558;28;20035;-63
2022/09/22 04:26:03;;;;;;;4.72;2.55;;;;;;;;;;5056242;28;20028;-61
2022/09/22 04:28:29;;;;;;;5.13;2.70;;;;;;;;;;5072793;28;20035;-61
2022/09/22 04:30:55;;;;;;;5.90;2.53;;;;;;;;;;5073973;28;20024;-63
2022/09/22 04:33:23;;;;;;;5.47;2.20;;;;;;;;;;5074037;28;20384;-61
2022/09/22 04:35:49;;;;;;;8.05;3.00;;;;;;;;;;5068333;28;20034;-62
2022/09/22 04:38:16;;;;;;;5.93;2.53;;;;;;;;;;5056797;28;20045;-61
2022/09/22 04:40:42;;;;;;;8.55;2.50;;;;;;;;;;5059086;28;20113;-61
2022/09/22 04:43:08;;;;;;;7.68;2.50;;;;;;;;;;5053844;28;20025;-64
2022/09/22 04:45:34;;;;;;;5.93;2.50;;;;;;;;;;5053768;28;20426;-68
2022/09/22 04:48:01;;;;;;;4.22;2.20;;;;;;;;;;5053329;28;20082;-67
2022/09/22 04:50:27;;;;;;;6.32;2.10;;;;;;;;;;5053107;28;20472;-66
2022/09/22 04:52:55;;;;;;;9.80;2.60;;;;;;;;;;5053379;28;20094;-66
2022/09/22 04:55:23;;;;;;;6.72;2.70;;;;;;;;;;5053349;28;20044;-64
2022/09/22 04:57:55;;;;;;;3.75;2.50;;;;;;;;;;5052996;28;20090;-67
2022/09/22 05:00:23;;;;;;;6.30;3.40;;;;;;;;;;5052782;28;20029;-67
2022/09/22 05:02:49;;;;;;;9.25;3.47;;;;;;;;;;5053011;28;20074;-65
2022/09/22 05:05:15;;;;;;;8.43;3.63;;;;;;;;;;5053820;28;20033;-67
2022/09/22 05:07:46;;;;;;;6.60;3.00;;;;;;;;;;5060423;28;20020;-67
2022/09/22 05:10:13;;;;;;;10.70;2.90;;;;;;;;;;5072412;28;20076;-67
2022/09/22 05:12:40;;;;;;;7.60;2.75;;;;;;;;;;5072579;28;20024;-68
2022/09/22 05:15:08;;;;;;;6.93;2.83;;;;;;;;;;5068017;28;20108;-69
2022/09/22 05:17:36;;;;;;;7.22;2.80;;;;;;;;;;5052788;28;20037;-69
2022/09/22 05:20:06;;;;;;;7.68;2.78;;;;;;;;;;5052415;28;20036;-68
2022/09/22 05:22:32;;;;;;;5.53;2.35;;;;;;;;;;5067852;28;20027;-67
2022/09/22 05:24:58;;;;;;;7.72;2.30;;;;;;;;;;5052785;28;20499;-67
2022/09/22 05:27:24;;;;;;;9.65;2.17;;;;;;;;;;5052583;28;20036;-69
2022/09/22 05:29:50;;;;;;;8.30;2.35;;;;;;;;;;5052829;28;20037;-68
2022/09/22 05:32:16;;;;;;;5.25;2.78;;;;;;;;;;5052618;28;20040;-67
2022/09/22 05:34:42;;;;;;;5.72;2.47;;;;;;;;;;5052049;28;20049;-69
2022/09/22 05:37:07;;;;;;;3.80;1.90;;;;;;;;;;5052607;28;20041;-69
2022/09/22 05:39:33;;;;;;;6.47;2.15;;;;;;;;;;5052520;28;20044;-69
2022/09/22 05:41:59;;;;;;;4.70;2.08;;;;;;;;;;5052814;28;20068;-68
2022/09/22 05:44:25;;;;;;;4.50;2.28;;;;;;;;;;5051527;28;20037;-68
2022/09/22 05:46:51;;;;;;;5.20;2.50;;;;;;;;;;5052777;28;20024;-68
2022/09/22 05:49:17;;;;;;;5.05;2.55;;;;;;;;;;5052715;28;20040;-68
2022/09/22 05:51:42;;;;;;;6.45;2.30;;;;;;;;;;5052683;28;20036;-69
2022/09/22 05:54:12;;;;;;;8.52;2.55;;;;;;;;;;5052438;28;20040;-70
2022/09/22 05:56:38;;;;;;;8.35;3.70;;;;;;;;;;5052432;28;20544;-68
2022/09/22 05:59:04;;;;;;;8.68;2.22;;;;;;;;;;5052150;28;20111;-69
2022/09/22 06:01:30;;;;;;;9.52;2.28;;;;;;;;;;5052138;28;20059;-68
2022/09/22 06:03:56;;;;;;;10.43;2.20;;;;;;;;;;5055796;28;20452;-68
2022/09/22 06:06:22;;;;;;;9.88;3.03;;;;;;;;;;5062720;28;20043;-69
2022/09/22 06:08:47;;;;;;;5.80;2.03;;;;;;;;;;5051895;28;20056;-69
2022/09/22 06:11:13;;;;;;;5.22;2.25;;;;;;;;;;5052154;28;20039;-68
2022/09/22 06:13:39;;;;;;;9.93;1.95;;;;;;;;;;5052526;28;20353;-68
2022/09/22 06:16:05;;;;;;;4.35;2.10;;;;;;;;;;5052247;28;20554;-68
2022/09/22 06:18:31;;;;;;;5.15;1.80;;;;;;;;;;5054368;28;20052;-69
2022/09/22 06:20:57;;;;;;;6.10;2.20;;;;;;;;;;5056710;28;20029;-68
2022/09/22 06:23:24;;;;;;;5.90;2.30;;;;;;;;;;5056388;28;20021;-70
2022/09/22 06:25:56;;;;;;;6.53;2.47;;;;;;;;;;5038468;28;20059;-73
2022/09/22 06:28:22;;;;;;;3.10;2.10;;;;;;;;;;5056099;28;20029;-71
2022/09/22 06:30:50;;;;;;;6.35;2.30;;;;;;;;;;5055926;28;20028;-68
2022/09/22 06:33:16;;;;;;;4.63;2.22;;;;;;;;;;5055832;28;20106;-69
2022/09/22 06:35:44;;;;;;;7.93;2.33;;;;;;;;;;5055883;28;20131;-71
2022/09/22 06:38:13;;;;;;;4.65;2.17;;;;;;;;;;5055813;28;20038;-67
2022/09/22 06:40:41;;;;;;;4.72;1.65;;;;;;;;;;5056123;28;20027;-67
2022/09/22 06:43:13;;;;;;;2.88;2.10;;;;;;;;;;5056904;28;20040;-69
2022/09/22 06:45:41;;;;;;;3.22;2.20;;;;;;;;;;5075619;28;20036;-67
2022/09/22 06:48:09;;;;;;;5.60;2.30;;;;;;;;;;5074342;28;20064;-66
2022/09/22 06:50:35;;;;;;;2.25;1.95;;;;;;;;;;5075568;28;20028;-67
2022/09/22 06:53:03;;;;;;;4.53;2.17;;;;;;;;;;5075258;28;20383;-71
2022/09/22 06:55:30;;;;;;;2.63;1.80;;;;;;;;;;5072403;28;20487;-66
2022/09/22 06:58:01;;;;;;;4.05;2.15;;;;;;;;;;5066094;28;20013;-67
2022/09/22 07:00:31;;;;;;;2.90;2.00;;;;;;;;;;5062762;28;20124;-68
2022/09/22 07:03:16;;;;;;;9.13;3.25;;;;;;;;;;5061356;28;20033;-68
2022/09/22 07:05:54;;;;;;;3.28;1.80;;;;;;;;;;5065984;28;20081;-69
2022/09/22 07:08:21;;;;;;;4.53;2.63;;;;;;;;;;5070114;28;20032;-66
2022/09/22 07:11:01;;;;;;;3.28;2.33;;;;;;;;;;5074638;28;20020;-68
2022/09/22 07:13:28;;;;;;;4.22;2.25;;;;;;;;;;5073882;28;20028;-67
2022/09/22 07:16:09;;;;;;;4.75;2.20;;;;;;;;;;5074840;28;20032;-67
2022/09/22 07:18:40;;;;;;;2.30;1.80;;;;;;;;;;5069669;28;20032;-69
2022/09/22 07:21:12;;;;;;;5.07;1.95;;;;;;;;;;5074342;28;20463;-68
2022/09/22 07:23:39;;;;;;;2.25;1.70;;;;;;;;;;5074084;28;20036;-68
2022/09/22 07:26:11;;;;;;;2.47;1.77;;;;;;;;;;5074504;28;20020;-72
2022/09/22 07:28:37;;;;;;;5.50;2.08;;;;;;;;;;5074512;28;20089;-68
2022/09/22 07:31:16;;;;;;;3.65;1.70;;;;;;;;;;5073666;28;20421;-73
2022/09/22 07:33:44;;;;;;;2.17;1.58;;;;;;;;;;5074530;28;20396;-67
2022/09/22 07:36:27;;;;;;;6.55;1.95;;;;;;;;;;5074120;28;20592;-67
2022/09/22 07:38:56;;;;;;;2.78;2.00;;;;;;;;;;5072551;28;20039;-65
2022/09/22 07:41:27;;;;;;;2.42;1.70;;;;;;;;;;5074096;28;20093;-66
2022/09/22 07:45:11;;;;;;;2.13;1.83;;;;;;;;;;5089323;28;20143;-65
2022/09/22 07:46:43;;;;;;;2.15;1.80;;;;;;;;;;5074312;28;20031;-69
2022/09/22 07:49:09;;;;;;;3.47;1.67;;;;;;;;;;5073511;28;20020;-67
2022/09/22 07:51:36;;;;;;;2.15;1.70;;;;;;;;;;5074251;28;20039;-68
2022/09/22 07:54:08;;;;;;;2.53;1.83;;;;;;;;;;5074256;28;20013;-66
2022/09/22 07:56:43;;;;;;;4.13;1.90;;;;;;;;;;5072712;28;20047;-66
2022/09/22 07:59:11;;;;;;;7.95;1.95;;;;;;;;;;5073579;28;20037;-68
2022/09/22 08:01:42;;;;;;;4.07;1.80;;;;;;;;;;5072290;28;20035;-71
2022/09/22 08:04:15;;;;;;;2.97;1.70;;;;;;;;;;5068985;28;20040;-70
2022/09/22 08:06:42;;;;;;;2.87;1.80;;;;;;;;;;5055797;28;20041;-69
2022/09/22 08:09:10;;;;;;;2.78;1.80;;;;;;;;;;5071573;28;20561;-69
2022/09/22 08:11:36;;;;;;;3.10;1.90;;;;;;;;;;5072871;28;20036;-67
2022/09/22 08:14:04;;;;;;;2.05;1.50;;;;;;;;;;5071386;28;20554;-67
2022/09/22 08:16:32;;;;;;;1.90;1.67;;;;;;;;;;5073290;28;20079;-68
2022/09/22 08:19:02;;;;;;;3.25;2.10;;;;;;;;;;5073131;28;20028;-66
2022/09/22 08:21:34;;;;;;;2.65;1.70;;;;;;;;;;5072458;28;20033;-66
2022/09/22 08:24:04;;;;;;;3.75;1.83;;;;;;;;;;5072401;28;20028;-66
2022/09/22 08:26:31;;;;;;;3.95;1.95;;;;;;;;;;5072682;28;20118;-66
2022/09/22 08:28:57;;;;;;;2.20;1.80;;;;;;;;;;5067692;28;20487;-66
2022/09/22 08:31:25;;;;;;;3.33;1.63;;;;;;;;;;5052668;28;20095;-68
2022/09/22 08:33:51;;;;;;;2.78;1.92;;;;;;;;;;5052359;28;20033;-67
2022/09/22 08:36:18;;;;;;;2.60;1.60;;;;;;;;;;5050887;28;20545;-70
2022/09/22 08:38:48;;;;;;;4.85;1.70;;;;;;;;;;5052557;28;20044;-67
2022/09/22 08:41:41;;;;;;;2.15;1.70;;;;;;;;;;5067608;28;20029;-69
2022/09/22 08:44:10;;;;;;;1.80;1.40;;;;;;;;;;5071329;28;20029;-70
2022/09/22 08:46:40;;;;;;;2.67;1.65;;;;;;;;;;5072649;28;20048;-67
2022/09/22 08:52:48;;;;;;;5.07;2.33;;;;;;;;;;5051295;28;20052;-66
2022/09/22 08:55:22;;;;;;;5.78;2.20;;;;;;;;;;5072619;28;20035;-67
2022/09/22 08:58:12;;;;;;;5.40;1.60;;;;;;;;;;5072654;28;20098;-67
2022/09/22 09:00:43;;;;;;;1.80;1.40;;;;;;;;;;5072253;28;20475;-67
2022/09/22 09:03:18;;;;;;;4.53;2.25;;;;;;;;;;5072848;28;20033;-67
2022/09/22 09:06:12;;;;;;;6.38;2.03;;;;;;;;;;5072244;28;20556;-67
2022/09/22 09:08:57;;;;;;;2.88;1.65;;;;;;;;;;5072579;28;20039;-67
2022/09/22 09:11:41;;;;;;;3.17;1.73;;;;;;;;;;5071184;28;20056;-68
2022/09/22 09:14:37;;;;;;;1.83;1.58;;;;;;;;;;5072448;28;20090;-69
2022/09/22 09:17:26;;;;;;;2.00;1.45;;;;;;;;;;5072106;28;20040;-72
2022/09/22 09:20:17;;;;;;;2.00;1.48;;;;;;;;;;5072256;28;20438;-71
2022/09/22 09:22:54;;;;;;;2.00;1.50;;;;;;;;;;5071219;28;20398;-67
2022/09/22 09:25:41;;;;;;;2.45;1.60;;;;;;;;;;5071387;28;20029;-66
2022/09/22 09:28:19;;;;;;;3.10;1.65;;;;;;;;;;5071326;28;20032;-69
2022/09/22 09:30:49;;;;;;;4.20;1.73;;;;;;;;;;5071977;28;20593;-71
2022/09/22 09:33:32;;;;;;;3.25;1.85;;;;;;;;;;5071014;28;20411;-69
2022/09/22 09:35:58;;;;;;;2.50;1.30;;;;;;;;;;5072483;28;20127;-68
2022/09/22 09:38:34;;;;;;;1.92;1.50;;;;;;;;;;5072196;28;20264;-67
2022/09/22 09:41:27;;;;;;;3.65;1.40;;;;;;;;;;5071796;28;20086;-67
2022/09/22 09:43:54;;;;;;;3.95;1.80;;;;;;;;;;5071664;28;20032;-69
2022/09/22 09:46:26;;;;;;;2.75;1.75;;;;;;;;;;5072305;28;20021;-67
2022/09/22 09:49:14;;;;;;;2.55;1.60;;;;;;;;;;5070410;28;20094;-67
2022/09/22 09:51:44;;;;;;;3.33;1.77;;;;;;;;;;5053503;28;20036;-66
2022/09/22 09:54:16;;;;;;;8.73;2.92;;;;;;;;;;5071328;28;20475;-66
2022/09/22 09:57:07;;;;;;;1.85;1.30;;;;;;;;;;5071138;28;20036;-67
2022/09/22 10:02:31;;;;;;;1.95;1.33;;;;;;;;;;5072086;28;20029;-67
2022/09/22 10:05:06;;;;;;;5.70;1.50;;;;;;;;;;5071608;28;20505;-68
2022/09/22 10:07:52;;;;;;;3.33;1.42;;;;;;;;;;5071828;28;20125;-67
2022/09/22 10:10:27;;;;;;;3.60;1.60;;;;;;;;;;5069393;28;20024;-68
2022/09/22 10:13:14;;;;;;;2.10;1.60;;;;;;;;;;5070512;28;20032;-66
2022/09/22 10:15:42;;;;;;;3.15;2.33;;;;;;;;;;5071892;28;20109;-70
2022/09/22 10:18:33;;;;;;;2.30;1.60;;;;;;;;;;5071750;28;20020;-66
2022/09/22 10:21:11;;;;;;;4.38;2.00;;;;;;;;;;5055712;28;20048;-70
2022/09/22 10:23:38;;;;;;;3.88;1.70;;;;;;;;;;5068133;28;20043;-67
2022/09/22 10:26:26;;;;;;;3.20;1.67;;;;;;;;;;5071083;28;20449;-66
2022/09/22 10:29:11;;;;;;;2.00;1.60;;;;;;;;;;5070624;28;20029;-68
2022/09/22 10:31:37;;;;;;;2.65;1.70;;;;;;;;;;5069200;28;20032;-66
2022/09/22 10:34:05;;;;;;;3.40;1.70;;;;;;;;;;5065511;28;20041;-70
2022/09/22 10:36:32;;;;;;;5.63;1.50;;;;;;;;;;5048849;28;20496;-69
2022/09/22 10:38:58;;;;;;;3.70;1.33;;;;;;;;;;5049520;28;20032;-69
2022/09/22 10:41:30;;;;;;;2.75;1.63;;;;;;;;;;5049599;28;20065;-67
2022/09/22 10:44:13;;;;;;;5.60;2.10;;;;;;;;;;5051039;28;20029;-68
2022/09/22 10:47:10;;;;;;;2.20;1.45;;;;;;;;;;5051089;28;20156;-67
2022/09/22 10:49:39;;;;;;;2.25;1.50;;;;;;;;;;5060889;28;20475;-67
2022/09/22 10:52:34;;;;;;;3.80;2.00;;;;;;;;;;5053408;28;20017;-66
2022/09/22 10:55:31;;;;;;;4.28;1.95;;;;;;;;;;5050591;28;20217;-67
2022/09/22 10:58:19;;;;;;;2.40;1.70;;;;;;;;;;5051362;28;20048;-67
2022/09/22 11:00:46;;;;;;;3.05;1.80;;;;;;;;;;5065576;28;20039;-68
2022/09/22 11:03:58;;;;;;;2.63;1.30;;;;;;;;;;5070327;28;20379;-68
2022/09/22 11:12:51;;;;;;;1.60;1.30;;;;;;;;;;5061522;28;20119;-68
2022/09/22 11:15:53;;;;;;;3.05;1.40;;;;;;;;;;5072243;28;20028;-68
2022/09/22 11:18:34;;;;;;;3.13;1.92;;;;;;;;;;5072537;28;20066;-68
2022/09/22 11:21:32;;;;;;;3.33;1.50;;;;;;;;;;5074057;28;20040;-69
2022/09/22 11:24:04;;;;;;;2.13;1.20;;;;;;;;;;5069347;28;20442;-67
2022/09/22 11:26:45;;;;;;;4.47;1.60;;;;;;;;;;5073652;28;20106;-67
2022/09/22 11:29:29;;;;;;;3.03;1.60;;;;;;;;;;5064678;28;20490;-70
2022/09/22 11:32:29;;;;;;;2.67;1.50;;;;;;;;;;5058954;28;20028;-66
2022/09/22 11:35:07;;;;;;;2.08;1.40;;;;;;;;;;5053168;28;20045;-67
2022/09/22 11:37:39;;;;;;;2.90;1.48;;;;;;;;;;5053008;28;20033;-67
2022/09/22 11:40:41;;;;;;;3.63;1.52;;;;;;;;;;5054012;28;20415;-68
2022/09/22 11:43:45;;;;;;;4.88;2.40;;;;;;;;;;5054115;28;20052;-67
2022/09/22 11:46:22;;;;;;;1.75;1.35;;;;;;;;;;5051714;28;20035;-68
2022/09/22 11:49:09;;;;;;;1.88;1.33;;;;;;;;;;5051652;28;20040;-67
2022/09/22 11:51:46;;;;;;;2.33;1.40;;;;;;;;;;5053031;28;20486;-66
2022/09/22 11:54:44;;;;;;;5.20;1.70;;;;;;;;;;5054034;28;20033;-67
2022/09/22 11:57:16;;;;;;;1.80;1.40;;;;;;;;;;5053743;28;20163;-68
2022/09/22 11:59:54;;;;;;;3.55;1.70;;;;;;;;;;5054278;28;20039;-67
2022/09/22 12:02:45;;;;;;;3.22;1.33;;;;;;;;;;5054443;28;20116;-67
2022/09/22 12:05:25;;;;;;;1.75;1.30;;;;;;;;;;5054302;28;20125;-68
2022/09/22 12:07:58;;;;;;;2.70;1.40;;;;;;;;;;5052593;28;20107;-68
2022/09/22 12:10:26;;;;;;;4.13;1.60;;;;;;;;;;5053902;28;20025;-68
2022/09/22 12:12:52;;;;;;;2.08;1.50;;;;;;;;;;5056199;28;20025;-69
2022/09/22 12:15:35;;;;;;;1.33;1.20;;;;;;;;;;5072684;28;20050;-67
2022/09/22 12:18:15;;;;;;;2.97;2.00;;;;;;;;;;5073732;28;20379;-67
2022/09/22 12:20:59;;;;;;;2.17;1.58;;;;;;;;;;5074179;28;20211;-68
2022/09/22 12:23:43;;;;;;;2.00;1.48;;;;;;;;;;5072052;28;20368;-70
2022/09/22 12:26:13;;;;;;;1.80;1.23;;;;;;;;;;5071287;28;20441;-68
2022/09/22 12:28:47;;;;;;;2.78;1.55;;;;;;;;;;5073590;28;20037;-69
2022/09/22 12:31:19;;;;;;;6.65;1.85;;;;;;;;;;5073598;28;20033;-69
2022/09/22 12:33:49;;;;;;;2.30;1.30;;;;;;;;;;5073852;28;20041;-67
2022/09/22 12:36:17;;;;;;;4.20;1.88;;;;;;;;;;5073318;28;20499;-66
2022/09/22 12:38:44;;;;;;;3.58;1.33;;;;;;;;;;5074073;28;20028;-69
2022/09/22 12:41:16;;;;;;;1.73;1.30;;;;;;;;;;5074446;28;20048;-68
2022/09/22 12:43:42;;;;;;;2.60;1.95;;;;;;;;;;5074256;28;20062;-72
2022/09/22 12:46:24;;;;;;;4.70;1.67;;;;;;;;;;5073499;28;20032;-68
2022/09/22 12:48:50;;;;;;;2.67;1.92;;;;;;;;;;5052238;28;20043;-69
2022/09/22 12:51:30;;;;;;;2.72;1.55;;;;;;;;;;5052297;28;20025;-69
2022/09/22 12:54:20;;;;;;;2.40;1.63;;;;;;;;;;5051887;28;20428;-68
2022/09/22 12:57:02;;;;;;;2.83;1.58;;;;;;;;;;5053692;28;20387;-68
2022/09/22 12:59:34;;;;;;;3.28;1.60;;;;;;;;;;5053661;28;20037;-67
2022/09/22 13:02:14;;;;;;;1.60;1.30;;;;;;;;;;5053506;28;20025;-69
2022/09/22 13:04:41;;;;;;;3.00;1.60;;;;;;;;;;5052039;28;20395;-69
2022/09/22 13:07:42;;;;;;;3.05;1.42;;;;;;;;;;5050734;28;20383;-69
2022/09/22 13:10:26;;;;;;;2.70;1.42;;;;;;;;;;5051739;28;20087;-69
2022/09/22 13:15:53;;;;;;;4.80;1.95;;;;;;;;;;5053235;28;20037;-69
2022/09/22 13:18:45;;;;;;;4.20;1.40;;;;;;;;;;5053184;28;20100;-68
2022/09/22 13:21:11;;;;;;;5.25;2.05;;;;;;;;;;5053182;28;20029;-67
2022/09/22 13:23:59;;;;;;;2.90;1.83;;;;;;;;;;5053291;28;20029;-70
2022/09/22 13:26:31;;;;;;;3.03;1.40;;;;;;;;;;5053073;28;20036;-71
2022/09/22 13:29:02;;;;;;;1.75;1.40;;;;;;;;;;5052436;28;20038;-70
2022/09/22 13:31:56;;;;;;;2.20;1.50;;;;;;;;;;5053245;28;20488;-71
2022/09/22 13:34:28;;;;;;;1.42;1.25;;;;;;;;;;5052855;28;20045;-69
2022/09/22 13:37:12;;;;;;;3.58;1.50;;;;;;;;;;5055216;28;20041;-70
2022/09/22 13:39:48;;;;;;;4.05;1.63;;;;;;;;;;5063648;28;20483;-69
2022/09/22 13:42:30;;;;;;;2.00;1.42;;;;;;;;;;5070064;28;20040;-70
2022/09/22 13:45:05;;;;;;;1.80;1.30;;;;;;;;;;5071894;28;20116;-70
2022/09/22 13:47:32;;;;;;;2.83;1.80;;;;;;;;;;5073091;28;20062;-73
2022/09/22 13:50:05;;;;;;;3.05;1.60;;;;;;;;;;5071437;28;20107;-72
2022/09/22 13:52:34;;;;;;;1.73;1.40;;;;;;;;;;5072514;28;20063;-72
2022/09/22 13:55:27;;;;;;;2.00;1.60;;;;;;;;;;5071895;28;20024;-69
2022/09/22 13:57:57;;;;;;;2.25;1.65;;;;;;;;;;5071531;28;20032;-72
2022/09/22 14:00:32;;;;;;;5.18;2.83;;;;;;;;;;5072356;28;20143;-70
2022/09/22 14:03:01;;;;;;;2.10;1.40;;;;;;;;;;5072554;28;20537;-70
2022/09/22 14:05:30;;;;;;;2.00;1.40;;;;;;;;;;5072764;28;20029;-70
2022/09/22 14:07:57;;;;;;;3.25;1.60;;;;;;;;;;5072548;28;20025;-71
2022/09/22 14:10:26;;;;;;;2.33;1.50;;;;;;;;;;5071426;28;20188;-69
2022/09/22 14:12:53;;;;;;;2.95;1.42;;;;;;;;;;5071440;28;20029;-68
2022/09/22 14:15:46;;;;;;;2.00;1.40;;;;;;;;;;5071509;28;20025;-71
2022/09/22 14:18:26;;;;;;;1.75;1.33;;;;;;;;;;5072579;28;20059;-69
2022/09/22 14:20:54;;;;;;;4.65;2.10;;;;;;;;;;5070997;28;20043;-70
2022/09/22 14:23:26;;;;;;;2.10;1.65;;;;;;;;;;5072242;28;20458;-69
2022/09/22 14:25:53;;;;;;;2.25;1.45;;;;;;;;;;5072566;28;20032;-71
2022/09/22 14:28:23;;;;;;;2.40;1.50;;;;;;;;;;5072267;28;20027;-71
2022/09/22 14:30:50;;;;;;;4.20;1.75;;;;;;;;;;5072194;28;20116;-68
2022/09/22 14:33:28;;;;;;;4.20;1.52;;;;;;;;;;5072306;28;20041;-68
2022/09/22 14:36:06;;;;;;;2.88;1.52;;;;;;;;;;5072578;28;20397;-68
2022/09/22 14:38:38;;;;;;;1.92;1.60;;;;;;;;;;5071642;28;20493;-71
2022/09/22 14:41:21;;;;;;;4.03;1.75;;;;;;;;;;5076100;28;20033;-69
2022/09/22 14:43:46;;;;;;;3.63;1.52;;;;;;;;;;5076082;28;20028;-71
2022/09/22 14:46:40;;;;;;;5.85;1.70;;;;;;;;;;5076110;28;20031;-69
2022/09/22 14:49:24;;;;;;;;;;;;;;;;;;5074182;28;20064;-68
2022/09/22 14:51:50;;;;;;;1.90;1.63;;;;;;;;;;5074646;28;19916;-68
2022/09/22 14:54:16;;;;;;;2.63;1.50;;;;;;;;;;5075854;28;20078;-71
2022/09/22 14:56:43;;;;;;;4.78;1.60;;;;;;;;;;5074702;28;20037;-70
2022/09/22 15:04:51;;;;;;;1.80;1.48;;;;;;;;;;5074285;28;20115;-69
2022/09/22 15:07:28;;;;;;;2.28;1.50;;;;;;;;;;5074549;28;20033;-67
2022/09/22 15:10:02;;;;;;;2.25;1.50;;;;;;;;;;5072187;28;20043;-66
2022/09/22 15:12:48;;;;;;;3.05;1.60;;;;;;;;;;5069198;28;20040;-66
2022/09/22 15:15:25;;;;;;;5.93;2.35;;;;;;;;;;5053961;28;20080;-66
2022/09/22 15:20:47;;;;;;;4.28;1.60;;;;;;;;;;5064108;28;20495;-69
2022/09/22 15:23:18;;;;;;;4.03;1.70;;;;;;;;;;5074232;28;20499;-66
2022/09/22 15:25:45;;;;;;;2.83;1.50;;;;;;;;;;5073930;28;20395;-68
2022/09/22 15:28:17;;;;;;;2.30;1.40;;;;;;;;;;5071306;28;20035;-68
2022/09/22 15:30:45;;;;;;;2.65;1.55;;;;;;;;;;5066576;28;20135;-67
2022/09/22 15:33:14;;;;;;;5.32;1.95;;;;;;;;;;5073619;28;20072;-67
2022/09/22 15:35:48;;;;;;;2.75;1.50;;;;;;;;;;5073856;28;20129;-67
2022/09/22 15:38:26;;;;;;;2.03;1.60;;;;;;;;;;5073773;28;20601;-66
2022/09/22 15:40:53;;;;;;;2.58;1.60;;;;;;;;;;5073675;28;20029;-66